Time;durP1;ratioP1;P1;durP2;ratioP2;P2;SDS_P1;SDS_P2;PMS_P1;PMS_P2;Temp;Humidity;BMP_temperature;BMP_pressure;BME280_temperature;BME280_humidity;BME280_pressure;Samples;Min_cycle;Max_cycle;Signal;HPM_P1;HPM_P2
2023/01/25 00:02:04;;;;;;;;;;;;;;;;;;4977795;28;7119;-70
2023/01/25 00:07:41;;;;;;;;;;;;;;;;;;4976939;28;6962;-70
2023/01/25 00:10:07;;;;;;;;;;;;;;;;;;4977106;28;7069;-70
2023/01/25 00:12:33;;;;;;;;;;;;;;;;;;4976787;28;7166;-70
2023/01/25 00:14:59;;;;;;;;;;;;;;;;;;4976977;28;7051;-70
2023/01/25 00:17:40;;;;;;;;;;;;;;;;;;4976490;28;6808;-70
2023/01/25 00:20:06;;;;;;;;;;;;;;;;;;4976369;28;7841;-70
2023/01/25 00:22:46;;;;;;;;;;;;;;;;;;4976762;28;7151;-70
2023/01/25 00:25:12;;;;;;;;;;;;;;;;;;4977427;28;7149;-70
2023/01/25 00:27:37;;;;;;;;;;;;;;;;;;4976695;28;7095;-70
2023/01/25 00:30:03;;;;;;;;;;;;;;;;;;4976603;28;7134;-70
2023/01/25 00:32:40;;;;;;;;;;;;;;;;;;4976616;28;7410;-70
2023/01/25 00:35:10;;;;;;;;;;;;;;;;;;4976668;28;7262;-70
2023/01/25 00:37:37;;;;;;;;;;;;;;;;;;4976616;28;7166;-70
2023/01/25 00:43:06;;;;;;;;;;;;;;;;;;4976290;28;6950;-70
2023/01/25 00:45:50;;;;;;;;;;;;;;;;;;4976526;28;7133;-70
2023/01/25 00:48:16;;;;;;;;;;;;;;;;;;4976625;28;7283;-70
2023/01/25 00:50:59;;;;;;;;;;;;;;;;;;4976500;28;7103;-70
2023/01/25 00:53:25;;;;;;;;;;;;;;;;;;4976431;28;7064;-70
2023/01/25 00:55:51;;;;;;;;;;;;;;;;;;4976412;28;7051;-70
2023/01/25 00:58:17;;;;;;;;;;;;;;;;;;4976425;28;7154;-70
2023/01/25 01:00:53;;;;;;;;;;;;;;;;;;4976239;28;7103;-70
2023/01/25 01:03:19;;;;;;;;;;;;;;;;;;4976232;28;6947;-70
2023/01/25 01:06:20;;;;;;;;;;;;;;;;;;4976206;28;6992;-70
2023/01/25 01:08:46;;;;;;;;;;;;;;;;;;4991145;28;7176;-70
2023/01/25 01:11:11;;;;;;;;;;;;;;;;;;4976148;28;7389;-70
2023/01/25 01:13:55;;;;;;;;;;;;;;;;;;4974727;28;7323;-70
2023/01/25 01:16:21;;;;;;;;;;;;;;;;;;4976080;28;7156;-70
2023/01/25 01:18:46;;;;;;;;;;;;;;;;;;4976619;28;7065;-70
2023/01/25 01:24:02;;;;;;;;;;;;;;;;;;4976840;28;7021;-70
2023/01/25 01:26:30;;;;;;;;;;;;;;;;;;4976033;28;7187;-69
2023/01/25 01:28:57;;;;;;;;;;;;;;;;;;4975562;28;6978;-69
2023/01/25 01:31:23;;;;;;;;;;;;;;;;;;4975886;28;6924;-69
2023/01/25 01:34:19;;;;;;;;;;;;;;;;;;4975817;28;7445;-69
2023/01/25 01:36:44;;;;;;;;;;;;;;;;;;4975656;28;7361;-69
2023/01/25 01:39:11;;;;;;;;;;;;;;;;;;4975761;28;6796;-69
2023/01/25 01:41:47;;;;;;;;;;;;;;;;;;4986080;28;7126;-70
2023/01/25 01:44:18;;;;;;;;;;;;;;;;;;4994895;28;7193;-70
2023/01/25 01:46:58;;;;;;;;;;;;;;;;;;4995151;28;7059;-70
2023/01/25 01:55:30;;;;;;;;;;;;;;;;;;4994898;28;6925;-70
2023/01/25 01:57:58;;;;;;;;;;;;;;;;;;4995043;28;7384;-70
2023/01/25 02:03:28;;;;;;;;;;;;;;;;;;5242281;23;7605;-76
2023/01/25 02:06:03;;;;;;;;;;;;;;;;;;5013115;28;8413;-72
2023/01/25 02:08:39;;;;;;;;;;;;;;;;;;5014501;28;7010;-72
2023/01/25 02:11:07;;;;;;;;;;;;;;;;;;5014314;28;6941;-71
2023/01/25 02:13:40;;;;;;;;;;;;;;;;;;5014426;28;7966;-71
2023/01/25 02:16:13;;;;;;;;;;;;;;;;;;5015376;28;7278;-71
2023/01/25 02:18:39;;;;;;;;;;;;;;;;;;5014582;28;7258;-71
2023/01/25 02:21:05;;;;;;;;;;;;;;;;;;5014265;28;7431;-71
2023/01/25 02:23:46;;;;;;;;;;;;;;;;;;5015196;28;7305;-71
2023/01/25 02:26:13;;;;;;;;;;;;;;;;;;5014025;28;7184;-71
2023/01/25 02:28:54;;;;;;;;;;;;;;;;;;5014472;28;7378;-71
2023/01/25 02:31:19;;;;;;;;;;;;;;;;;;5014260;28;6996;-71
2023/01/25 02:39:51;;;;;;;;;;;;;;;;;;5014204;28;6919;-71
2023/01/25 02:42:17;;;;;;;;;;;;;;;;;;5015841;28;7172;-71
2023/01/25 02:44:50;;;;;;;;;;;;;;;;;;5018064;28;7174;-71
2023/01/25 02:47:16;;;;;;;;;;;;;;;;;;5018607;28;7116;-71
2023/01/25 02:49:41;;;;;;;;;;;;;;;;;;5017921;28;6932;-71
2023/01/25 02:52:39;;;;;;;;;;;;;;;;;;5017771;28;7533;-71
2023/01/25 02:55:05;;;;;;;;;;;;;;;;;;5017744;28;7401;-71
2023/01/25 02:57:31;;;;;;;;;;;;;;;;;;5017641;28;7366;-71
2023/01/25 02:59:56;;;;;;;;;;;;;;;;;;5017639;28;6942;-71
2023/01/25 03:02:47;;;;;;;;;;;;;;;;;;5018204;28;7082;-71
2023/01/25 03:05:12;;;;;;;;;;;;;;;;;;5017376;28;7843;-71
2023/01/25 03:08:07;;;;;;;;;;;;;;;;;;5017499;28;6952;-71
2023/01/25 03:10:32;;;;;;;;;;;;;;;;;;5017969;28;7354;-71
2023/01/25 03:12:58;;;;;;;;;;;;;;;;;;5017769;28;7374;-71
2023/01/25 03:15:23;;;;;;;;;;;;;;;;;;5017337;28;7047;-71
2023/01/25 03:17:55;;;;;;;;;;;;;;;;;;5017035;28;7986;-71
2023/01/25 03:20:21;;;;;;;;;;;;;;;;;;5017709;28;7168;-71
2023/01/25 03:25:38;;;;;;;;;;;;;;;;;;5017275;28;6757;-71
2023/01/25 03:28:24;;;;;;;;;;;;;;;;;;5017437;28;7028;-71
2023/01/25 03:30:53;;;;;;;;;;;;;;;;;;5016818;28;7092;-71
2023/01/25 03:33:19;;;;;;;;;;;;;;;;;;5016981;28;7663;-71
2023/01/25 03:35:44;;;;;;;;;;;;;;;;;;5016971;28;7157;-71
2023/01/25 03:38:37;;;;;;;;;;;;;;;;;;5016934;28;7347;-71
2023/01/25 03:43:55;;;;;;;;;;;;;;;;;;5017423;28;6992;-71
2023/01/25 03:46:21;;;;;;;;;;;;;;;;;;5016831;28;7066;-71
2023/01/25 03:49:02;;;;;;;;;;;;;;;;;;5016552;28;6996;-71
2023/01/25 03:51:27;;;;;;;;;;;;;;;;;;5016581;28;7649;-72
2023/01/25 03:53:53;;;;;;;;;;;;;;;;;;4998802;28;8500;-71
2023/01/25 03:59:17;;;;;;;;;;;;;;;;;;5017458;28;6959;-71
2023/01/25 04:01:43;;;;;;;;;;;;;;;;;;5016419;28;7040;-71
2023/01/25 04:04:33;;;;;;;;;;;;;;;;;;5007082;28;7022;-71
2023/01/25 04:06:59;;;;;;;;;;;;;;;;;;4978071;28;7161;-71
2023/01/25 04:10:00;;;;;;;;;;;;;;;;;;4977277;28;7076;-71
2023/01/25 04:12:26;;;;;;;;;;;;;;;;;;4977136;28;6810;-71
2023/01/25 04:14:51;;;;;;;;;;;;;;;;;;4977248;28;6967;-71
2023/01/25 04:17:17;;;;;;;;;;;;;;;;;;4977179;28;7315;-71
2023/01/25 04:22:51;;;;;;;;;;;;;;;;;;4976882;28;6932;-71
2023/01/25 04:25:17;;;;;;;;;;;;;;;;;;4977013;28;7401;-71
2023/01/25 04:27:43;;;;;;;;;;;;;;;;;;4976844;28;7093;-71
2023/01/25 04:30:08;;;;;;;;;;;;;;;;;;4976961;28;7095;-71
2023/01/25 04:32:36;;;;;;;;;;;;;;;;;;4976635;28;6984;-71
2023/01/25 04:35:02;;;;;;;;;;;;;;;;;;4976766;28;6929;-71
2023/01/25 04:40:30;;;;;;;;;;;;;;;;;;4976510;28;6913;-71
2023/01/25 04:43:24;;;;;;;;;;;;;;;;;;4976638;28;7111;-71
2023/01/25 04:45:50;;;;;;;;;;;;;;;;;;4976542;28;7686;-71
2023/01/25 04:48:44;;;;;;;;;;;;;;;;;;4976561;28;7240;-71
2023/01/25 04:51:10;;;;;;;;;;;;;;;;;;4976595;28;7962;-71
2023/01/25 04:57:07;;;;;;;;;;;;;;;;;;4976256;28;6996;-71
2023/01/25 04:59:33;;;;;;;;;;;;;;;;;;4976380;28;6988;-71
2023/01/25 05:02:01;;;;;;;;;;;;;;;;;;4976392;28;7389;-71
2023/01/25 05:04:50;;;;;;;;;;;;;;;;;;4978367;28;7527;-72
2023/01/25 05:07:15;;;;;;;;;;;;;;;;;;5013797;28;7075;-72
2023/01/25 05:12:54;;;;;;;;;;;;;;;;;;5015025;28;6689;-71
2023/01/25 05:15:19;;;;;;;;;;;;;;;;;;5015196;28;7106;-71
2023/01/25 05:17:45;;;;;;;;;;;;;;;;;;5015252;28;7095;-71
2023/01/25 05:20:11;;;;;;;;;;;;;;;;;;5015100;28;7081;-71
2023/01/25 05:22:38;;;;;;;;;;;;;;;;;;5014952;28;7440;-71
2023/01/25 05:26:59;;;;;;;;;;;;;;;;;;5014832;28;7851;-71
2023/01/25 05:28:24;;;;;;;;;;;;;;;;;;5024605;28;6947;-71
2023/01/25 05:30:49;;;;;;;;;;;;;;;;;;5015325;28;7237;-71
2023/01/25 05:33:38;;;;;;;;;;;;;;;;;;5014792;28;7062;-71
2023/01/25 05:36:04;;;;;;;;;;;;;;;;;;5014940;28;7780;-71
2023/01/25 05:44:28;;;;;;;;;;;;;;;;;;5014993;28;6929;-71
2023/01/25 05:46:54;;;;;;;;;;;;;;;;;;5014480;28;6922;-71
2023/01/25 05:49:20;;;;;;;;;;;;;;;;;;5014943;28;7035;-71
2023/01/25 05:51:46;;;;;;;;;;;;;;;;;;5014705;28;7327;-71
2023/01/25 05:54:16;;;;;;;;;;;;;;;;;;5014862;28;6921;-70
2023/01/25 05:56:43;;;;;;;;;;;;;;;;;;5014763;28;7120;-72
2023/01/25 05:59:10;;;;;;;;;;;;;;;;;;5014820;28;6840;-75
2023/01/25 06:01:35;;;;;;;;;;;;;;;;;;5014715;28;7454;-71
2023/01/25 06:04:01;;;;;;;;;;;;;;;;;;5014522;28;6946;-71
2023/01/25 06:06:27;;;;;;;;;;;;;;;;;;5014538;28;7102;-71
2023/01/25 06:08:52;;;;;;;;;;;;;;;;;;5014767;28;6944;-70
2023/01/25 06:11:20;;;;;;;;;;;;;;;;;;5032013;28;7233;-70
2023/01/25 06:13:49;;;;;;;;;;;;;;;;;;5034420;28;7281;-70
2023/01/25 06:16:15;;;;;;;;;;;;;;;;;;5034832;28;7164;-70
2023/01/25 06:18:43;;;;;;;;;;;;;;;;;;5037885;28;6992;-70
2023/01/25 06:21:09;;;;;;;;;;;;;;;;;;5038086;28;7372;-70
2023/01/25 06:23:35;;;;;;;;;;;;;;;;;;5038092;28;7082;-70
2023/01/25 06:26:05;;;;;;;;;;;;;;;;;;5037754;28;7182;-70
2023/01/25 06:28:31;;;;;;;;;;;;;;;;;;5037981;28;7303;-70
2023/01/25 06:31:02;;;;;;;;;;;;;;;;;;5037581;28;6966;-70
2023/01/25 06:36:31;;;;;;;;;;;;;;;;;;5037820;28;6912;-70
2023/01/25 06:38:57;;;;;;;;;;;;;;;;;;5037647;28;7485;-70
2023/01/25 06:41:46;;;;;;;;;;;;;;;;;;5019903;28;9055;-70
2023/01/25 06:44:11;;;;;;;;;;;;;;;;;;5037383;28;8043;-70
2023/01/25 06:46:37;;;;;;;;;;;;;;;;;;5037771;28;7363;-70
2023/01/25 06:52:06;;;;;;;;;;;;;;;;;;5037303;28;6682;-70
2023/01/25 07:00:36;;;;;;;;;;;;;;;;;;5037076;28;6893;-70
2023/01/25 07:09:09;;;;;;;;;;;;;;;;;;5037048;28;6702;-70
2023/01/25 07:14:58;;;;;;;;;;;;;;;;;;4957276;28;7229;-70
2023/01/25 07:17:23;;;;;;;;;;;;;;;;;;4956801;28;7136;-70
2023/01/25 07:22:51;;;;;;;;;;;;;;;;;;5042532;23;7379;-67
2023/01/25 07:28:19;;;;;;;;;;;;;;;;;;5016576;28;6682;-66
2023/01/25 07:36:58;;;;;;;;;;;;;;;;;;4997116;28;7417;-66
2023/01/25 07:39:24;;;;;;;;;;;;;;;;;;4997378;28;7090;-66
2023/01/25 07:44:53;;;;;;;;;;;;;;;;;;4997045;28;6689;-66
2023/01/25 07:50:40;;;;;;;;;;;;;;;;;;4997190;28;6925;-66
2023/01/25 07:53:08;;;;;;;;;;;;;;;;;;4996824;28;7196;-66
2023/01/25 07:55:34;;;;;;;;;;;;;;;;;;4997898;28;7157;-67
2023/01/25 08:01:07;;;;;;;;;;;;;;;;;;4996828;28;6690;-66
2023/01/25 08:03:33;;;;;;;;;;;;;;;;;;4996321;28;7159;-67
2023/01/25 08:05:59;;;;;;;;;;;;;;;;;;4993549;28;7455;-66
2023/01/25 08:08:25;;;;;;;;;;;;;;;;;;4996123;28;7406;-67
2023/01/25 08:10:51;;;;;;;;;;;;;;;;;;4996491;28;7183;-66
2023/01/25 08:13:16;;;;;;;;;;;;;;;;;;4996911;28;7129;-66
2023/01/25 08:15:42;;;;;;;;;;;;;;;;;;4996716;28;6896;-66
2023/01/25 08:18:31;;;;;;;;;;;;;;;;;;4996348;28;6991;-66
2023/01/25 08:20:58;;;;;;;;;;;;;;;;;;4996382;28;7068;-66
2023/01/25 08:23:24;;;;;;;;;;;;;;;;;;4994415;28;7107;-66
2023/01/25 08:26:25;;;;;;;;;;;;;;;;;;4996549;28;6970;-66
2023/01/25 08:28:52;;;;;;;;;;;;;;;;;;4995998;28;6976;-66
2023/01/25 08:34:21;;;;;;;;;;;;;;;;;;4996162;28;7410;-66
2023/01/25 08:36:50;;;;;;;;;;;;;;;;;;4996193;28;9142;-66
2023/01/25 08:39:16;;;;;;;;;;;;;;;;;;4995085;28;7763;-66
2023/01/25 08:45:15;;;;;;;;;;;;;;;;;;4996048;28;6918;-66
2023/01/25 08:47:40;;;;;;;;;;;;;;;;;;4996041;28;6955;-66
2023/01/25 08:50:06;;;;;;;;;;;;;;;;;;4995820;28;6928;-66
2023/01/25 08:52:31;;;;;;;;;;;;;;;;;;4995593;28;6916;-66
2023/01/25 08:54:57;;;;;;;;;;;;;;;;;;4996019;28;7448;-66
2023/01/25 08:57:37;;;;;;;;;;;;;;;;;;4995893;28;7524;-66
2023/01/25 09:00:02;;;;;;;;;;;;;;;;;;4995846;28;7171;-66
2023/01/25 09:02:28;;;;;;;;;;;;;;;;;;4995743;28;7399;-66
2023/01/25 09:07:57;;;;;;;;;;;;;;;;;;4995649;28;7052;-66
2023/01/25 09:10:23;;;;;;;;;;;;;;;;;;4995760;28;7167;-66
2023/01/25 09:12:49;;;;;;;;;;;;;;;;;;4995701;28;7199;-66
2023/01/25 09:15:15;;;;;;;;;;;;;;;;;;4995254;28;7115;-66
2023/01/25 09:17:41;;;;;;;;;;;;;;;;;;4995655;28;7260;-66
2023/01/25 09:20:14;;;;;;;;;;;;;;;;;;4995626;28;7495;-66
2023/01/25 09:23:07;;;;;;;;;;;;;;;;;;4995535;28;7127;-66
2023/01/25 09:25:34;;;;;;;;;;;;;;;;;;4995509;28;7056;-66
2023/01/25 09:31:04;;;;;;;;;;;;;;;;;;4995331;28;6837;-66
2023/01/25 09:45:35;;;;;;;;;;;;;;;;;;4995606;28;6920;-67
2023/01/25 09:48:19;;;;;;;;;;;;;;;;;;4995122;28;7629;-66
2023/01/25 09:51:05;;;;;;;;;;;;;;;;;;4996540;28;7159;-66
2023/01/25 09:56:35;;;;;;;;;;;;;;;;;;4979503;28;6937;-66
2023/01/25 09:59:25;;;;;;;;;;;;;;;;;;4962299;28;10018;-66
2023/01/25 10:01:54;;;;;;;;;;;;;;;;;;4979479;28;7184;-66
2023/01/25 10:04:53;;;;;;;;;;;;;;;;;;4989724;28;7471;-66
2023/01/25 10:07:25;;;;;;;;;;;;;;;;;;4999424;28;8785;-66
2023/01/25 10:12:42;;;;;;;;;;;;;;;;;;4998846;28;6788;-66
2023/01/25 10:18:13;;;;;;;;;;;;;;;;;;4998572;28;6948;-66
2023/01/25 10:23:20;;;;;;;;;;;;;;;;;;5080114;23;6774;-69
2023/01/25 10:37:50;;;;;;;;;;;;;;;;;;5018093;28;6904;-69
2023/01/25 10:40:23;;;;;;;;;;;;;;;;;;5017784;28;6976;-69
2023/01/25 10:43:06;;;;;;;;;;;;;;;;;;5018603;28;7339;-69
2023/01/25 10:45:31;;;;;;;;;;;;;;;;;;5018038;28;7060;-69
2023/01/25 10:48:04;;;;;;;;;;;;;;;;;;5017603;28;7880;-69
2023/01/25 10:50:41;;;;;;;;;;;;;;;;;;5017826;28;6948;-69
2023/01/25 10:53:19;;;;;;;;;;;;;;;;;;5017648;28;7008;-69
2023/01/25 10:56:03;;;;;;;;;;;;;;;;;;5017417;28;7179;-69
2023/01/25 11:07:42;;;;;;;;;;;;;;;;;;5016911;28;6729;-70
2023/01/25 11:10:33;;;;;;;;;;;;;;;;;;5008185;28;7108;-69
2023/01/25 11:13:14;;;;;;;;;;;;;;;;;;5016393;28;7340;-69
2023/01/25 11:15:45;;;;;;;;;;;;;;;;;;5077194;23;7087;-67
2023/01/25 11:21:17;;;;;;;;;;;;;;;;;;5017167;28;6990;-66
2023/01/25 11:27:19;;;;;;;;;;;;;;;;;;4997417;28;6979;-66
2023/01/25 11:32:49;;;;;;;;;;;;;;;;;;4997261;28;6777;-69
2023/01/25 11:35:16;;;;;;;;;;;;;;;;;;4998316;28;7302;-69
2023/01/25 11:37:48;;;;;;;;;;;;;;;;;;4998351;28;7200;-67
2023/01/25 11:40:28;;;;;;;;;;;;;;;;;;4997115;28;6938;-67
2023/01/25 11:43:20;;;;;;;;;;;;;;;;;;4996990;28;6948;-67
2023/01/25 11:46:01;;;;;;;;;;;;;;;;;;4997518;28;7405;-67
2023/01/25 11:48:46;;;;;;;;;;;;;;;;;;4997607;28;6980;-67
2023/01/25 11:54:24;;;;;;;;;;;;;;;;;;4997458;28;6800;-66
2023/01/25 11:56:58;;;;;;;;;;;;;;;;;;4997041;28;6945;-66
2023/01/25 11:59:50;;;;;;;;;;;;;;;;;;4997029;28;7031;-66
2023/01/25 12:02:25;;;;;;;;;;;;;;;;;;4996959;28;7318;-67
2023/01/25 12:07:53;;;;;;;;;;;;;;;;;;4996610;28;6929;-66
2023/01/25 12:13:15;;;;;;;;;;;;;;;;;;4997037;28;7195;-67
2023/01/25 12:22:25;;;;;;;;;;;;;;;;;;4996355;28;6914;-67
2023/01/25 12:24:51;;;;;;;;;;;;;;;;;;4996562;28;6945;-66
2023/01/25 12:27:20;;;;;;;;;;;;;;;;;;4996322;28;7142;-67
2023/01/25 12:36:01;;;;;;;;;;;;;;;;;;4996232;28;6988;-67
2023/01/25 12:45:01;;;;;;;;;;;;;;;;;;4996027;28;6945;-68
2023/01/25 12:47:31;;;;;;;;;;;;;;;;;;4996095;28;6980;-67
2023/01/25 12:50:13;;;;;;;;;;;;;;;;;;4997126;28;7186;-66
2023/01/25 12:53:05;;;;;;;;;;;;;;;;;;4996169;28;6981;-66
2023/01/25 12:55:30;;;;;;;;;;;;;;;;;;4996166;28;7157;-67
2023/01/25 12:58:14;;;;;;;;;;;;;;;;;;4995568;28;7094;-66
2023/01/25 13:03:52;;;;;;;;;;;;;;;;;;4996381;28;6789;-66
2023/01/25 13:09:22;;;;;;;;;;;;;;;;;;4995510;28;6963;-66
2023/01/25 13:12:07;;;;;;;;;;;;;;;;;;4996641;28;7296;-66
2023/01/25 13:14:37;;;;;;;;;;;;;;;;;;4995705;28;7427;-67
2023/01/25 13:17:21;;;;;;;;;;;;;;;;;;4988732;28;7075;-66
2023/01/25 13:19:47;;;;;;;;;;;;;;;;;;4996436;28;7070;-67
2023/01/25 13:22:33;;;;;;;;;;;;;;;;;;4995390;28;6954;-66
2023/01/25 13:28:20;;;;;;;;;;;;;;;;;;4995615;28;7010;-66
2023/01/25 13:30:52;;;;;;;;;;;;;;;;;;4995434;28;7348;-66
2023/01/25 13:36:42;;;;;;;;;;;;;;;;;;4995326;28;6685;-67
2023/01/25 13:39:23;;;;;;;;;;;;;;;;;;4995420;28;7063;-67
2023/01/25 13:42:12;;;;;;;;;;;;;;;;;;4995322;28;6965;-67
2023/01/25 13:44:43;;;;;;;;;;;;;;;;;;4989780;28;7272;-66
2023/01/25 13:53:14;;;;;;;;;;;;;;;;;;4994910;28;6682;-67
2023/01/25 13:55:45;;;;;;;;;;;;;;;;;;4996208;28;7320;-67
2023/01/25 13:58:31;;;;;;;;;;;;;;;;;;4995257;28;6819;-66
2023/01/25 14:01:10;;;;;;;;;;;;;;;;;;4994985;28;7192;-67
2023/01/25 14:06:31;;;;;;;;;;;;;;;;;;4995342;28;6792;-65
2023/01/25 14:09:26;;;;;;;;;;;;;;;;;;4995935;28;7319;-65
2023/01/25 14:11:51;;;;;;;;;;;;;;;;;;4995084;28;7146;-65
2023/01/25 14:14:19;;;;;;;;;;;;;;;;;;4995185;28;7531;-65
2023/01/25 14:16:45;;;;;;;;;;;;;;;;;;4991352;28;7266;-65
2023/01/25 14:19:30;;;;;;;;;;;;;;;;;;4994773;28;7485;-65
2023/01/25 14:22:11;;;;;;;;;;;;;;;;;;4994928;28;6973;-65
2023/01/25 14:24:55;;;;;;;;;;;;;;;;;;4994972;28;7185;-65
2023/01/25 14:27:21;;;;;;;;;;;;;;;;;;4994937;28;7099;-65
2023/01/25 14:29:47;;;;;;;;;;;;;;;;;;4994942;28;7109;-65
2023/01/25 14:32:19;;;;;;;;;;;;;;;;;;4994623;28;7047;-65
2023/01/25 14:34:46;;;;;;;;;;;;;;;;;;4994878;28;6852;-65
2023/01/25 14:37:20;;;;;;;;;;;;;;;;;;4994705;28;7601;-65
2023/01/25 14:42:49;;;;;;;;;;;;;;;;;;4978673;28;6975;-66
2023/01/25 14:52:10;;;;;;;;;;;;;;;;;;4998131;28;6920;-65
2023/01/25 15:01:31;;;;;;;;;;;;;;;;;;4998054;28;6682;-65
2023/01/25 15:10:22;;;;;;;;;;;;;;;;;;4997831;28;6920;-65
2023/01/25 15:22:10;;;;;;;;;;;;;;;;;;4978418;28;6909;-65
2023/01/25 15:24:35;;;;;;;;;;;;;;;;;;4978310;28;7383;-65
2023/01/25 15:27:02;;;;;;;;;;;;;;;;;;4978218;28;7403;-65
2023/01/25 15:29:45;;;;;;;;;;;;;;;;;;4978121;28;6847;-65
2023/01/25 15:32:19;;;;;;;;;;;;;;;;;;5078537;23;6908;-67
2023/01/25 15:34:46;;;;;;;;;;;;;;;;;;5000283;28;7037;-68
2023/01/25 15:37:11;;;;;;;;;;;;;;;;;;5017120;28;7122;-68
2023/01/25 15:39:44;;;;;;;;;;;;;;;;;;5017048;28;7354;-68
2023/01/25 15:42:10;;;;;;;;;;;;;;;;;;5016999;28;7415;-68
2023/01/25 15:44:35;;;;;;;;;;;;;;;;;;5016838;28;6984;-68
2023/01/25 15:50:05;;;;;;;;;;;;;;;;;;5016362;28;6976;-68
2023/01/25 15:55:34;;;;;;;;;;;;;;;;;;5016448;28;6688;-68
2023/01/25 15:57:59;;;;;;;;;;;;;;;;;;5016134;28;7306;-68
2023/01/25 16:06:48;;;;;;;;;;;;;;;;;;5016298;28;6690;-68
2023/01/25 16:09:14;;;;;;;;;;;;;;;;;;5016940;28;7166;-68
2023/01/25 16:11:39;;;;;;;;;;;;;;;;;;5016612;28;7278;-68
2023/01/25 16:14:05;;;;;;;;;;;;;;;;;;4998954;28;8320;-68
2023/01/25 16:16:48;;;;;;;;;;;;;;;;;;5016323;28;7148;-68
2023/01/25 16:19:15;;;;;;;;;;;;;;;;;;5017191;28;6935;-68
2023/01/25 16:21:41;;;;;;;;;;;;;;;;;;5016466;28;6931;-68
2023/01/25 16:24:21;;;;;;;;;;;;;;;;;;5016111;28;7189;-68
2023/01/25 16:26:52;;;;;;;;;;;;;;;;;;5016106;28;7047;-68
2023/01/25 16:29:21;;;;;;;;;;;;;;;;;;5016027;28;7215;-68
2023/01/25 16:31:56;;;;;;;;;;;;;;;;;;5015494;28;6949;-68
2023/01/25 16:34:21;;;;;;;;;;;;;;;;;;5016013;28;6984;-68
2023/01/25 16:36:51;;;;;;;;;;;;;;;;;;5015629;28;7920;-68
2023/01/25 16:42:19;;;;;;;;;;;;;;;;;;4996056;28;6927;-68
2023/01/25 16:44:47;;;;;;;;;;;;;;;;;;4996145;28;7011;-68
2023/01/25 16:47:25;;;;;;;;;;;;;;;;;;4996210;28;7448;-68
2023/01/25 16:49:51;;;;;;;;;;;;;;;;;;4995982;28;7081;-68
2023/01/25 16:52:16;;;;;;;;;;;;;;;;;;4995617;28;7194;-68
2023/01/25 16:57:49;;;;;;;;;;;;;;;;;;4995630;28;6908;-68
2023/01/25 17:03:17;;;;;;;;;;;;;;;;;;5014852;28;6975;-68
2023/01/25 17:05:43;;;;;;;;;;;;;;;;;;5014565;28;7418;-68
2023/01/25 17:08:09;;;;;;;;;;;;;;;;;;4999773;28;6938;-68
2023/01/25 17:10:36;;;;;;;;;;;;;;;;;;5012014;28;7414;-68
2023/01/25 17:13:02;;;;;;;;;;;;;;;;;;5014976;28;7492;-68
2023/01/25 17:15:28;;;;;;;;;;;;;;;;;;5015314;28;6992;-68
2023/01/25 17:21:00;;;;;;;;;;;;;;;;;;5015117;28;6690;-68
2023/01/25 17:23:26;;;;;;;;;;;;;;;;;;5015044;28;7331;-68
2023/01/25 17:31:57;;;;;;;;;;;;;;;;;;5014512;28;6681;-68
2023/01/25 17:34:24;;;;;;;;;;;;;;;;;;5012787;28;7182;-68
2023/01/25 17:36:51;;;;;;;;;;;;;;;;;;5014948;28;7123;-68
2023/01/25 17:39:18;;;;;;;;;;;;;;;;;;4999311;28;7288;-68
2023/01/25 17:41:47;;;;;;;;;;;;;;;;;;4995256;28;7172;-68
2023/01/25 17:44:20;;;;;;;;;;;;;;;;;;4995197;28;7108;-68
2023/01/25 17:46:46;;;;;;;;;;;;;;;;;;4995284;28;7165;-68
2023/01/25 17:52:14;;;;;;;;;;;;;;;;;;4995084;28;6873;-68
2023/01/25 17:57:43;;;;;;;;;;;;;;;;;;4995497;28;6689;-68
2023/01/25 18:00:10;;;;;;;;;;;;;;;;;;4995181;28;7142;-65
2023/01/25 18:02:36;;;;;;;;;;;;;;;;;;4995172;28;7560;-68
2023/01/25 18:05:01;;;;;;;;;;;;;;;;;;4995200;28;7151;-68
2023/01/25 18:07:27;;;;;;;;;;;;;;;;;;4995229;28;7240;-68
2023/01/25 18:09:59;;;;;;;;;;;;;;;;;;4995129;28;7106;-68
2023/01/25 18:12:24;;;;;;;;;;;;;;;;;;4997407;28;7244;-68
2023/01/25 18:14:50;;;;;;;;;;;;;;;;;;4999020;28;7106;-68
2023/01/25 18:17:17;;;;;;;;;;;;;;;;;;4998988;28;7110;-68
2023/01/25 18:19:44;;;;;;;;;;;;;;;;;;4998896;28;7213;-68
2023/01/25 18:22:11;;;;;;;;;;;;;;;;;;4998882;28;7139;-68
2023/01/25 18:27:39;;;;;;;;;;;;;;;;;;4998568;28;6921;-68
2023/01/25 18:30:16;;;;;;;;;;;;;;;;;;4998801;28;7175;-68
2023/01/25 18:32:42;;;;;;;;;;;;;;;;;;4993277;28;6960;-68
2023/01/25 18:35:20;;;;;;;;;;;;;;;;;;4998484;28;7125;-68
2023/01/25 18:37:46;;;;;;;;;;;;;;;;;;4998523;28;7142;-68
2023/01/25 18:40:15;;;;;;;;;;;;;;;;;;4998611;28;7137;-68
2023/01/25 18:42:41;;;;;;;;;;;;;;;;;;4998073;28;6933;-68
2023/01/25 18:45:07;;;;;;;;;;;;;;;;;;4998461;28;7155;-68
2023/01/25 18:50:38;;;;;;;;;;;;;;;;;;4998194;28;6917;-68
2023/01/25 18:53:04;;;;;;;;;;;;;;;;;;4998822;28;7369;-68
2023/01/25 18:55:30;;;;;;;;;;;;;;;;;;4980853;28;8414;-68
2023/01/25 19:01:07;;;;;;;;;;;;;;;;;;4997843;28;6925;-68
2023/01/25 19:03:53;;;;;;;;;;;;;;;;;;4998101;28;7138;-68
2023/01/25 19:06:19;;;;;;;;;;;;;;;;;;4998076;28;7167;-68
2023/01/25 19:08:50;;;;;;;;;;;;;;;;;;5003657;28;7185;-68
2023/01/25 19:11:18;;;;;;;;;;;;;;;;;;5018290;28;7180;-68
2023/01/25 19:13:51;;;;;;;;;;;;;;;;;;5017612;28;7125;-68
2023/01/25 19:16:19;;;;;;;;;;;;;;;;;;5017246;28;7188;-68
2023/01/25 19:18:46;;;;;;;;;;;;;;;;;;5017139;28;7112;-68
2023/01/25 19:21:14;;;;;;;;;;;;;;;;;;5017456;28;7260;-68
2023/01/25 19:23:58;;;;;;;;;;;;;;;;;;5016502;28;7257;-68
2023/01/25 19:26:24;;;;;;;;;;;;;;;;;;5017908;28;7147;-68
2023/01/25 19:28:51;;;;;;;;;;;;;;;;;;5017112;28;7124;-68
2023/01/25 19:34:19;;;;;;;;;;;;;;;;;;5014749;28;6737;-69
2023/01/25 19:36:48;;;;;;;;;;;;;;;;;;5017034;28;7098;-68
2023/01/25 19:39:36;;;;;;;;;;;;;;;;;;5016972;28;7152;-68
2023/01/25 19:42:01;;;;;;;;;;;;;;;;;;5017017;28;7149;-68
2023/01/25 19:44:27;;;;;;;;;;;;;;;;;;5017600;28;7200;-68
2023/01/25 19:46:52;;;;;;;;;;;;;;;;;;5016943;28;7101;-68
2023/01/25 19:49:18;;;;;;;;;;;;;;;;;;5016905;28;7023;-68
2023/01/25 19:52:20;;;;;;;;;;;;;;;;;;5016739;28;7046;-68
2023/01/25 19:54:46;;;;;;;;;;;;;;;;;;5016862;28;7163;-68
2023/01/25 19:57:11;;;;;;;;;;;;;;;;;;5016696;28;7389;-68
2023/01/25 20:02:40;;;;;;;;;;;;;;;;;;5016432;28;6685;-68
2023/01/25 20:05:06;;;;;;;;;;;;;;;;;;5016567;28;7130;-68
2023/01/25 20:07:32;;;;;;;;;;;;;;;;;;5016516;28;7119;-68
2023/01/25 20:10:04;;;;;;;;;;;;;;;;;;5016345;28;7212;-68
2023/01/25 20:12:29;;;;;;;;;;;;;;;;;;5017041;28;7170;-68
2023/01/25 20:14:55;;;;;;;;;;;;;;;;;;5016393;28;7315;-68
2023/01/25 20:17:21;;;;;;;;;;;;;;;;;;5016233;28;7198;-69
2023/01/25 20:19:47;;;;;;;;;;;;;;;;;;5016284;28;7424;-69
2023/01/25 20:25:15;;;;;;;;;;;;;;;;;;5004921;28;7034;-69
2023/01/25 20:27:40;;;;;;;;;;;;;;;;;;4996542;28;7151;-69
2023/01/25 20:33:09;;;;;;;;;;;;;;;;;;4992873;28;6967;-69
2023/01/25 20:38:37;;;;;;;;;;;;;;;;;;4996235;28;6677;-69
2023/01/25 20:41:38;;;;;;;;;;;;;;;;;;4996349;28;6915;-69
2023/01/25 20:44:07;;;;;;;;;;;;;;;;;;4997043;28;7326;-69
2023/01/25 20:46:47;;;;;;;;;;;;;;;;;;4996204;28;7128;-66
2023/01/25 20:49:15;;;;;;;;;;;;;;;;;;4996080;28;7388;-66
2023/01/25 20:51:48;;;;;;;;;;;;;;;;;;4996117;28;7420;-66
2023/01/25 20:54:14;;;;;;;;;;;;;;;;;;4996144;28;6918;-66
2023/01/25 20:56:41;;;;;;;;;;;;;;;;;;4996001;28;6852;-66
2023/01/25 21:02:09;;;;;;;;;;;;;;;;;;4996062;28;6677;-66
2023/01/25 21:04:35;;;;;;;;;;;;;;;;;;4995885;28;7024;-66
2023/01/25 21:07:01;;;;;;;;;;;;;;;;;;4995882;28;7091;-66
2023/01/25 21:09:37;;;;;;;;;;;;;;;;;;4995518;28;8184;-66
2023/01/25 21:12:03;;;;;;;;;;;;;;;;;;4995796;28;7125;-66
2023/01/25 21:17:31;;;;;;;;;;;;;;;;;;4995656;28;6679;-66
2023/01/25 21:19:57;;;;;;;;;;;;;;;;;;4996275;28;7414;-66
2023/01/25 21:22:23;;;;;;;;;;;;;;;;;;4995637;28;7518;-66
2023/01/25 21:24:55;;;;;;;;;;;;;;;;;;4996127;28;7604;-66
2023/01/25 21:27:21;;;;;;;;;;;;;;;;;;4995595;28;7132;-66
2023/01/25 21:29:47;;;;;;;;;;;;;;;;;;4995521;28;6815;-66
2023/01/25 21:35:16;;;;;;;;;;;;;;;;;;4994976;28;6689;-66
2023/01/25 21:40:44;;;;;;;;;;;;;;;;;;4995263;28;6927;-66
2023/01/25 21:43:10;;;;;;;;;;;;;;;;;;4996001;28;7221;-66
2023/01/25 21:51:35;;;;;;;;;;;;;;;;;;4995366;28;7079;-66
2023/01/25 21:54:00;;;;;;;;;;;;;;;;;;4995371;28;6912;-66
2023/01/25 21:56:27;;;;;;;;;;;;;;;;;;4995220;28;7364;-66
2023/01/25 21:59:00;;;;;;;;;;;;;;;;;;4995307;28;7232;-66
2023/01/25 22:01:26;;;;;;;;;;;;;;;;;;4995214;28;6951;-66
2023/01/25 22:03:51;;;;;;;;;;;;;;;;;;5000344;28;7118;-66
2023/01/25 22:09:21;;;;;;;;;;;;;;;;;;5014383;28;6704;-68
2023/01/25 22:11:57;;;;;;;;;;;;;;;;;;5014686;28;6823;-68
2023/01/25 22:14:23;;;;;;;;;;;;;;;;;;5014623;28;7197;-68
2023/01/25 22:16:50;;;;;;;;;;;;;;;;;;5014699;28;7141;-68
2023/01/25 22:19:16;;;;;;;;;;;;;;;;;;5015717;28;7126;-68
2023/01/25 22:21:42;;;;;;;;;;;;;;;;;;5014633;28;7122;-69
2023/01/25 22:24:40;;;;;;;;;;;;;;;;;;5014507;28;7442;-71
2023/01/25 22:27:05;;;;;;;;;;;;;;;;;;5014334;28;7205;-68
2023/01/25 22:29:33;;;;;;;;;;;;;;;;;;5014284;28;7218;-68
2023/01/25 22:32:16;;;;;;;;;;;;;;;;;;5014500;28;7294;-68
2023/01/25 22:37:44;;;;;;;;;;;;;;;;;;5014289;28;6693;-68
2023/01/25 22:40:11;;;;;;;;;;;;;;;;;;5014469;28;7151;-68
2023/01/25 22:42:36;;;;;;;;;;;;;;;;;;5014396;28;6866;-66
2023/01/25 22:45:33;;;;;;;;;;;;;;;;;;5014440;28;7353;-66
2023/01/25 22:47:59;;;;;;;;;;;;;;;;;;5013916;28;7152;-66
2023/01/25 22:50:24;;;;;;;;;;;;;;;;;;5014465;28;7118;-66
2023/01/25 22:52:50;;;;;;;;;;;;;;;;;;5014284;28;7168;-66
2023/01/25 22:55:16;;;;;;;;;;;;;;;;;;5014288;28;7296;-66
2023/01/25 22:57:41;;;;;;;;;;;;;;;;;;5014337;28;7101;-66